sensor_id;sensor_type;location;lat;lon;timestamp;P1;durP1;ratioP1;P2;durP2;ratioP2
7475;SDS011;3779;49.216;8.650;2022-12-20T00:00:18;14.20;;;12.50;;
7475;SDS011;3779;49.216;8.650;2022-12-20T00:03:04;16.23;;;13.07;;
7475;SDS011;3779;49.216;8.650;2022-12-20T00:05:50;13.53;;;11.73;;
7475;SDS011;3779;49.216;8.650;2022-12-20T00:08:36;13.97;;;12.47;;
7475;SDS011;3779;49.216;8.650;2022-12-20T00:11:23;14.03;;;12.27;;
7475;SDS011;3779;49.216;8.650;2022-12-20T00:14:10;14.23;;;11.97;;
7475;SDS011;3779;49.216;8.650;2022-12-20T00:16:56;13.83;;;12.43;;
7475;SDS011;3779;49.216;8.650;2022-12-20T00:19:44;13.90;;;12.00;;
7475;SDS011;3779;49.216;8.650;2022-12-20T00:22:30;13.33;;;11.80;;
7475;SDS011;3779;49.216;8.650;2022-12-20T00:25:16;14.17;;;12.67;;
7475;SDS011;3779;49.216;8.650;2022-12-20T00:28:03;13.47;;;12.07;;
7475;SDS011;3779;49.216;8.650;2022-12-20T00:30:52;15.33;;;12.23;;
7475;SDS011;3779;49.216;8.650;2022-12-20T00:33:38;13.30;;;12.00;;
7475;SDS011;3779;49.216;8.650;2022-12-20T00:36:27;12.80;;;11.50;;
7475;SDS011;3779;49.216;8.650;2022-12-20T00:39:15;13.73;;;11.97;;
7475;SDS011;3779;49.216;8.650;2022-12-20T00:42:00;13.77;;;11.27;;
7475;SDS011;3779;49.216;8.650;2022-12-20T00:44:47;12.60;;;10.90;;
7475;SDS011;3779;49.216;8.650;2022-12-20T00:47:32;13.00;;;11.30;;
7475;SDS011;3779;49.216;8.650;2022-12-20T00:50:19;12.80;;;11.30;;
7475;SDS011;3779;49.216;8.650;2022-12-20T00:53:05;16.07;;;11.80;;
7475;SDS011;3779;49.216;8.650;2022-12-20T00:55:54;13.33;;;11.77;;
7475;SDS011;3779;49.216;8.650;2022-12-20T00:58:42;12.07;;;10.83;;
7475;SDS011;3779;49.216;8.650;2022-12-20T01:01:29;13.30;;;11.33;;
7475;SDS011;3779;49.216;8.650;2022-12-20T01:04:16;12.83;;;11.50;;
7475;SDS011;3779;49.216;8.650;2022-12-20T01:07:02;12.30;;;11.00;;
7475;SDS011;3779;49.216;8.650;2022-12-20T01:09:49;11.87;;;10.57;;
7475;SDS011;3779;49.216;8.650;2022-12-20T01:12:35;12.93;;;11.57;;
7475;SDS011;3779;49.216;8.650;2022-12-20T01:15:22;12.67;;;11.37;;
7475;SDS011;3779;49.216;8.650;2022-12-20T01:18:08;12.50;;;11.23;;
7475;SDS011;3779;49.216;8.650;2022-12-20T01:21:04;12.27;;;11.00;;
7475;SDS011;3779;49.216;8.650;2022-12-20T01:23:52;12.70;;;11.33;;
7475;SDS011;3779;49.216;8.650;2022-12-20T01:26:39;13.47;;;10.70;;
7475;SDS011;3779;49.216;8.650;2022-12-20T01:29:25;13.03;;;10.83;;
7475;SDS011;3779;49.216;8.650;2022-12-20T01:32:11;11.77;;;10.53;;
7475;SDS011;3779;49.216;8.650;2022-12-20T01:34:57;11.33;;;9.90;;
7475;SDS011;3779;49.216;8.650;2022-12-20T01:37:42;11.97;;;10.07;;
7475;SDS011;3779;49.216;8.650;2022-12-20T01:40:29;11.73;;;10.47;;
7475;SDS011;3779;49.216;8.650;2022-12-20T01:43:15;11.33;;;10.13;;
7475;SDS011;3779;49.216;8.650;2022-12-20T01:46:02;11.90;;;10.57;;
7475;SDS011;3779;49.216;8.650;2022-12-20T01:48:50;10.90;;;9.73;;
7475;SDS011;3779;49.216;8.650;2022-12-20T01:51:44;11.20;;;10.03;;
7475;SDS011;3779;49.216;8.650;2022-12-20T01:54:45;11.27;;;10.03;;
7475;SDS011;3779;49.216;8.650;2022-12-20T01:57:43;11.90;;;10.40;;
7475;SDS011;3779;49.216;8.650;2022-12-20T02:00:37;12.07;;;9.90;;
7475;SDS011;3779;49.216;8.650;2022-12-20T02:03:23;10.60;;;9.60;;
7475;SDS011;3779;49.216;8.650;2022-12-20T02:06:17;11.97;;;10.63;;
7475;SDS011;3779;49.216;8.650;2022-12-20T02:09:05;11.73;;;9.57;;
7475;SDS011;3779;49.216;8.650;2022-12-20T02:18:12;10.97;;;9.87;;
7475;SDS011;3779;49.216;8.650;2022-12-20T02:30:04;10.70;;;9.60;;
7475;SDS011;3779;49.216;8.650;2022-12-20T02:35:43;10.13;;;9.10;;
7475;SDS011;3779;49.216;8.650;2022-12-20T02:38:32;10.20;;;9.20;;
7475;SDS011;3779;49.216;8.650;2022-12-20T02:41:56;12.03;;;9.90;;
7475;SDS011;3779;49.216;8.650;2022-12-20T02:44:47;11.17;;;9.33;;
7475;SDS011;3779;49.216;8.650;2022-12-20T02:47:55;10.87;;;9.77;;
7475;SDS011;3779;49.216;8.650;2022-12-20T02:50:49;11.80;;;10.60;;
7475;SDS011;3779;49.216;8.650;2022-12-20T02:53:38;10.27;;;9.17;;
7475;SDS011;3779;49.216;8.650;2022-12-20T02:56:30;10.73;;;9.73;;
7475;SDS011;3779;49.216;8.650;2022-12-20T02:59:21;10.53;;;9.47;;
7475;SDS011;3779;49.216;8.650;2022-12-20T03:02:10;11.00;;;9.53;;
7475;SDS011;3779;49.216;8.650;2022-12-20T03:04:57;11.53;;;9.97;;
7475;SDS011;3779;49.216;8.650;2022-12-20T03:07:43;10.37;;;9.37;;
7475;SDS011;3779;49.216;8.650;2022-12-20T03:10:29;10.47;;;9.40;;
7475;SDS011;3779;49.216;8.650;2022-12-20T03:13:15;10.43;;;9.23;;
7475;SDS011;3779;49.216;8.650;2022-12-20T03:16:09;10.23;;;8.90;;
7475;SDS011;3779;49.216;8.650;2022-12-20T03:18:56;9.77;;;8.73;;
7475;SDS011;3779;49.216;8.650;2022-12-20T03:21:42;10.13;;;9.13;;
7475;SDS011;3779;49.216;8.650;2022-12-20T03:24:28;10.40;;;9.30;;
7475;SDS011;3779;49.216;8.650;2022-12-20T03:27:14;10.03;;;9.03;;
7475;SDS011;3779;49.216;8.650;2022-12-20T03:30:01;10.30;;;9.00;;
7475;SDS011;3779;49.216;8.650;2022-12-20T03:32:52;9.93;;;8.93;;
7475;SDS011;3779;49.216;8.650;2022-12-20T03:35:38;11.10;;;9.23;;
7475;SDS011;3779;49.216;8.650;2022-12-20T03:38:24;11.27;;;10.03;;
7475;SDS011;3779;49.216;8.650;2022-12-20T03:41:10;11.57;;;9.63;;
7475;SDS011;3779;49.216;8.650;2022-12-20T03:43:57;10.43;;;9.33;;
7475;SDS011;3779;49.216;8.650;2022-12-20T03:46:43;11.03;;;9.90;;
7475;SDS011;3779;49.216;8.650;2022-12-20T03:49:30;12.73;;;11.43;;
7475;SDS011;3779;49.216;8.650;2022-12-20T03:52:16;11.10;;;9.90;;
7475;SDS011;3779;49.216;8.650;2022-12-20T03:55:02;11.87;;;10.60;;
7475;SDS011;3779;49.216;8.650;2022-12-20T03:57:56;11.20;;;10.10;;
7475;SDS011;3779;49.216;8.650;2022-12-20T04:00:55;11.57;;;10.43;;
7475;SDS011;3779;49.216;8.650;2022-12-20T04:03:55;11.50;;;10.30;;
7475;SDS011;3779;49.216;8.650;2022-12-20T04:06:41;11.77;;;10.37;;
7475;SDS011;3779;49.216;8.650;2022-12-20T04:09:27;11.53;;;10.33;;
7475;SDS011;3779;49.216;8.650;2022-12-20T04:12:20;11.47;;;10.23;;
7475;SDS011;3779;49.216;8.650;2022-12-20T04:15:07;10.90;;;9.80;;
7475;SDS011;3779;49.216;8.650;2022-12-20T04:17:53;11.83;;;9.47;;
7475;SDS011;3779;49.216;8.650;2022-12-20T04:20:39;11.07;;;9.57;;
7475;SDS011;3779;49.216;8.650;2022-12-20T04:23:35;11.17;;;9.97;;
7475;SDS011;3779;49.216;8.650;2022-12-20T04:26:22;10.70;;;9.27;;
7475;SDS011;3779;49.216;8.650;2022-12-20T04:29:09;10.33;;;9.03;;
7475;SDS011;3779;49.216;8.650;2022-12-20T04:31:55;11.00;;;9.37;;
7475;SDS011;3779;49.216;8.650;2022-12-20T04:34:41;10.53;;;9.37;;
7475;SDS011;3779;49.216;8.650;2022-12-20T04:37:28;10.77;;;9.03;;
7475;SDS011;3779;49.216;8.650;2022-12-20T04:40:16;10.97;;;9.87;;
7475;SDS011;3779;49.216;8.650;2022-12-20T04:43:07;10.70;;;9.60;;
7475;SDS011;3779;49.216;8.650;2022-12-20T04:45:54;10.00;;;8.93;;
7475;SDS011;3779;49.216;8.650;2022-12-20T04:48:42;10.17;;;9.17;;
7475;SDS011;3779;49.216;8.650;2022-12-20T04:51:28;10.13;;;9.13;;
7475;SDS011;3779;49.216;8.650;2022-12-20T04:54:14;10.70;;;9.33;;
7475;SDS011;3779;49.216;8.650;2022-12-20T04:57:11;10.13;;;9.13;;
7475;SDS011;3779;49.216;8.650;2022-12-20T04:59:57;10.57;;;9.47;;
7475;SDS011;3779;49.216;8.650;2022-12-20T05:02:43;10.30;;;9.20;;
7475;SDS011;3779;49.216;8.650;2022-12-20T05:05:33;10.13;;;8.90;;
7475;SDS011;3779;49.216;8.650;2022-12-20T05:08:19;11.87;;;10.53;;
7475;SDS011;3779;49.216;8.650;2022-12-20T05:11:08;11.23;;;10.07;;
7475;SDS011;3779;49.216;8.650;2022-12-20T05:13:55;10.33;;;9.33;;
7475;SDS011;3779;49.216;8.650;2022-12-20T05:16:41;11.43;;;8.77;;
7475;SDS011;3779;49.216;8.650;2022-12-20T05:19:27;10.20;;;9.10;;
7475;SDS011;3779;49.216;8.650;2022-12-20T05:22:13;10.37;;;9.30;;
7475;SDS011;3779;49.216;8.650;2022-12-20T05:25:28;11.60;;;10.37;;
7475;SDS011;3779;49.216;8.650;2022-12-20T05:28:34;11.10;;;9.73;;
7475;SDS011;3779;49.216;8.650;2022-12-20T05:31:21;10.17;;;9.17;;
7475;SDS011;3779;49.216;8.650;2022-12-20T05:34:07;10.30;;;9.27;;
7475;SDS011;3779;49.216;8.650;2022-12-20T05:36:55;10.67;;;9.50;;
7475;SDS011;3779;49.216;8.650;2022-12-20T05:39:43;11.27;;;9.70;;
7475;SDS011;3779;49.216;8.650;2022-12-20T05:42:36;11.93;;;9.80;;
7475;SDS011;3779;49.216;8.650;2022-12-20T05:45:22;10.33;;;9.33;;
7475;SDS011;3779;49.216;8.650;2022-12-20T05:48:14;10.67;;;9.57;;
7475;SDS011;3779;49.216;8.650;2022-12-20T05:51:02;12.27;;;9.83;;
7475;SDS011;3779;49.216;8.650;2022-12-20T05:53:50;11.37;;;10.17;;
7475;SDS011;3779;49.216;8.650;2022-12-20T05:56:41;10.97;;;9.77;;
7475;SDS011;3779;49.216;8.650;2022-12-20T05:59:27;12.60;;;10.37;;
7475;SDS011;3779;49.216;8.650;2022-12-20T06:02:14;11.20;;;10.10;;
7475;SDS011;3779;49.216;8.650;2022-12-20T06:05:00;10.40;;;9.40;;
7475;SDS011;3779;49.216;8.650;2022-12-20T06:07:48;11.03;;;9.87;;
7475;SDS011;3779;49.216;8.650;2022-12-20T06:10:34;10.83;;;9.67;;
7475;SDS011;3779;49.216;8.650;2022-12-20T06:13:21;12.13;;;10.50;;
7475;SDS011;3779;49.216;8.650;2022-12-20T06:16:09;11.47;;;10.10;;
7475;SDS011;3779;49.216;8.650;2022-12-20T06:18:56;11.87;;;10.67;;
7475;SDS011;3779;49.216;8.650;2022-12-20T06:21:42;7.43;;;6.33;;
7475;SDS011;3779;49.216;8.650;2022-12-20T06:24:30;11.73;;;10.53;;
7475;SDS011;3779;49.216;8.650;2022-12-20T06:27:17;10.87;;;9.67;;
7475;SDS011;3779;49.216;8.650;2022-12-20T06:30:11;10.33;;;9.30;;
7475;SDS011;3779;49.216;8.650;2022-12-20T06:33:23;12.30;;;9.80;;
7475;SDS011;3779;49.216;8.650;2022-12-20T06:36:10;20.50;;;17.10;;
7475;SDS011;3779;49.216;8.650;2022-12-20T06:38:56;30.53;;;25.17;;
7475;SDS011;3779;49.216;8.650;2022-12-20T06:41:43;17.77;;;14.30;;
7475;SDS011;3779;49.216;8.650;2022-12-20T06:44:29;15.80;;;11.77;;
7475;SDS011;3779;49.216;8.650;2022-12-20T06:47:15;11.27;;;10.07;;
7475;SDS011;3779;49.216;8.650;2022-12-20T06:50:01;10.77;;;9.67;;
7475;SDS011;3779;49.216;8.650;2022-12-20T06:52:47;11.50;;;10.30;;
7475;SDS011;3779;49.216;8.650;2022-12-20T06:55:33;11.63;;;10.47;;
7475;SDS011;3779;49.216;8.650;2022-12-20T06:58:19;12.03;;;10.77;;
7475;SDS011;3779;49.216;8.650;2022-12-20T07:01:08;11.90;;;10.07;;
7475;SDS011;3779;49.216;8.650;2022-12-20T07:03:54;10.73;;;9.63;;
7475;SDS011;3779;49.216;8.650;2022-12-20T07:06:40;10.70;;;8.90;;
7475;SDS011;3779;49.216;8.650;2022-12-20T07:09:26;10.73;;;9.63;;
7475;SDS011;3779;49.216;8.650;2022-12-20T07:12:12;9.93;;;8.93;;
7475;SDS011;3779;49.216;8.650;2022-12-20T07:14:58;11.43;;;9.77;;
7475;SDS011;3779;49.216;8.650;2022-12-20T07:17:44;10.20;;;9.20;;
7475;SDS011;3779;49.216;8.650;2022-12-20T07:20:30;10.83;;;9.10;;
7475;SDS011;3779;49.216;8.650;2022-12-20T07:23:17;10.03;;;8.83;;
7475;SDS011;3779;49.216;8.650;2022-12-20T07:26:03;9.73;;;8.73;;
7475;SDS011;3779;49.216;8.650;2022-12-20T07:28:49;11.10;;;9.00;;
7475;SDS011;3779;49.216;8.650;2022-12-20T07:31:34;10.53;;;8.30;;
7475;SDS011;3779;49.216;8.650;2022-12-20T07:34:20;9.97;;;8.63;;
7475;SDS011;3779;49.216;8.650;2022-12-20T07:37:06;10.43;;;9.17;;
7475;SDS011;3779;49.216;8.650;2022-12-20T07:39:53;11.13;;;8.83;;
7475;SDS011;3779;49.216;8.650;2022-12-20T07:42:39;11.30;;;9.13;;
7475;SDS011;3779;49.216;8.650;2022-12-20T07:45:25;9.53;;;8.53;;
7475;SDS011;3779;49.216;8.650;2022-12-20T07:48:10;9.47;;;8.47;;
7475;SDS011;3779;49.216;8.650;2022-12-20T07:50:58;11.37;;;9.27;;
7475;SDS011;3779;49.216;8.650;2022-12-20T07:53:48;13.60;;;10.10;;
7475;SDS011;3779;49.216;8.650;2022-12-20T07:56:40;13.00;;;10.40;;
7475;SDS011;3779;49.216;8.650;2022-12-20T07:59:33;11.90;;;9.97;;
7475;SDS011;3779;49.216;8.650;2022-12-20T08:02:25;11.57;;;10.30;;
7475;SDS011;3779;49.216;8.650;2022-12-20T08:05:15;12.10;;;10.73;;
7475;SDS011;3779;49.216;8.650;2022-12-20T08:08:02;17.33;;;13.67;;
7475;SDS011;3779;49.216;8.650;2022-12-20T08:10:49;16.43;;;13.10;;
7475;SDS011;3779;49.216;8.650;2022-12-20T08:13:35;11.70;;;10.37;;
7475;SDS011;3779;49.216;8.650;2022-12-20T08:16:22;11.67;;;9.07;;
7475;SDS011;3779;49.216;8.650;2022-12-20T08:19:08;10.37;;;9.27;;
7475;SDS011;3779;49.216;8.650;2022-12-20T08:21:54;10.27;;;9.17;;
7475;SDS011;3779;49.216;8.650;2022-12-20T08:24:40;9.80;;;8.80;;
7475;SDS011;3779;49.216;8.650;2022-12-20T08:27:26;9.90;;;8.47;;
7475;SDS011;3779;49.216;8.650;2022-12-20T08:30:12;10.47;;;9.37;;
7475;SDS011;3779;49.216;8.650;2022-12-20T08:32:59;11.07;;;9.87;;
7475;SDS011;3779;49.216;8.650;2022-12-20T08:35:45;11.87;;;10.00;;
7475;SDS011;3779;49.216;8.650;2022-12-20T08:38:32;11.20;;;10.10;;
7475;SDS011;3779;49.216;8.650;2022-12-20T08:41:20;11.07;;;9.93;;
7475;SDS011;3779;49.216;8.650;2022-12-20T08:44:06;11.00;;;9.83;;
7475;SDS011;3779;49.216;8.650;2022-12-20T08:46:52;10.47;;;9.23;;
7475;SDS011;3779;49.216;8.650;2022-12-20T08:49:38;10.10;;;9.10;;
7475;SDS011;3779;49.216;8.650;2022-12-20T08:52:24;11.90;;;10.20;;
7475;SDS011;3779;49.216;8.650;2022-12-20T08:55:10;9.90;;;8.90;;
7475;SDS011;3779;49.216;8.650;2022-12-20T08:57:56;10.90;;;9.23;;
7475;SDS011;3779;49.216;8.650;2022-12-20T09:00:42;9.53;;;8.33;;
7475;SDS011;3779;49.216;8.650;2022-12-20T09:03:28;10.27;;;8.63;;
7475;SDS011;3779;49.216;8.650;2022-12-20T09:06:17;10.27;;;8.43;;
7475;SDS011;3779;49.216;8.650;2022-12-20T09:09:04;9.63;;;8.53;;
7475;SDS011;3779;49.216;8.650;2022-12-20T09:11:51;8.53;;;7.23;;
7475;SDS011;3779;49.216;8.650;2022-12-20T09:14:37;8.67;;;7.80;;
7475;SDS011;3779;49.216;8.650;2022-12-20T09:17:23;9.83;;;8.90;;
7475;SDS011;3779;49.216;8.650;2022-12-20T09:20:09;10.00;;;8.93;;
7475;SDS011;3779;49.216;8.650;2022-12-20T09:22:56;8.47;;;6.93;;
7475;SDS011;3779;49.216;8.650;2022-12-20T09:25:43;11.20;;;9.13;;
7475;SDS011;3779;49.216;8.650;2022-12-20T09:28:29;11.33;;;10.07;;
7475;SDS011;3779;49.216;8.650;2022-12-20T09:31:16;10.83;;;9.50;;
7475;SDS011;3779;49.216;8.650;2022-12-20T09:34:07;10.73;;;9.63;;
7475;SDS011;3779;49.216;8.650;2022-12-20T09:36:54;10.27;;;9.23;;
7475;SDS011;3779;49.216;8.650;2022-12-20T09:39:40;8.70;;;7.80;;
7475;SDS011;3779;49.216;8.650;2022-12-20T09:42:26;8.83;;;7.87;;
7475;SDS011;3779;49.216;8.650;2022-12-20T09:45:18;8.93;;;7.93;;
7475;SDS011;3779;49.216;8.650;2022-12-20T09:48:50;7.93;;;7.13;;
7475;SDS011;3779;49.216;8.650;2022-12-20T09:54:53;8.90;;;7.73;;
7475;SDS011;3779;49.216;8.650;2022-12-20T10:01:28;8.37;;;7.57;;
7475;SDS011;3779;49.216;8.650;2022-12-20T10:13:12;6.70;;;6.00;;
7475;SDS011;3779;49.216;8.650;2022-12-20T10:25:30;7.20;;;6.50;;
7475;SDS011;3779;49.216;8.650;2022-12-20T10:28:17;7.77;;;6.63;;
7475;SDS011;3779;49.216;8.650;2022-12-20T10:31:12;7.80;;;7.00;;
7475;SDS011;3779;49.216;8.650;2022-12-20T10:34:00;7.60;;;6.63;;
7475;SDS011;3779;49.216;8.650;2022-12-20T10:36:46;7.67;;;6.87;;
7475;SDS011;3779;49.216;8.650;2022-12-20T10:39:39;7.70;;;6.83;;
7475;SDS011;3779;49.216;8.650;2022-12-20T10:45:34;6.90;;;6.20;;
7475;SDS011;3779;49.216;8.650;2022-12-20T10:48:26;13.30;;;7.60;;
7475;SDS011;3779;49.216;8.650;2022-12-20T10:51:18;8.23;;;6.83;;
7475;SDS011;3779;49.216;8.650;2022-12-20T10:54:11;6.93;;;6.23;;
7475;SDS011;3779;49.216;8.650;2022-12-20T10:57:25;9.13;;;7.40;;
7475;SDS011;3779;49.216;8.650;2022-12-20T11:00:25;9.67;;;8.17;;
7475;SDS011;3779;49.216;8.650;2022-12-20T11:03:18;9.33;;;8.43;;
7475;SDS011;3779;49.216;8.650;2022-12-20T11:06:11;9.80;;;8.40;;
7475;SDS011;3779;49.216;8.650;2022-12-20T11:12:19;9.77;;;8.73;;
7475;SDS011;3779;49.216;8.650;2022-12-20T11:15:08;10.17;;;9.07;;
7475;SDS011;3779;49.216;8.650;2022-12-20T11:18:20;11.93;;;9.50;;
7475;SDS011;3779;49.216;8.650;2022-12-20T11:27:41;11.97;;;9.57;;
7475;SDS011;3779;49.216;8.650;2022-12-20T11:31:13;12.33;;;9.33;;
7475;SDS011;3779;49.216;8.650;2022-12-20T11:37:24;8.57;;;6.83;;
7475;SDS011;3779;49.216;8.650;2022-12-20T11:40:16;9.60;;;8.60;;
7475;SDS011;3779;49.216;8.650;2022-12-20T11:43:39;11.27;;;9.40;;
7475;SDS011;3779;49.216;8.650;2022-12-20T11:46:50;9.77;;;8.33;;
7475;SDS011;3779;49.216;8.650;2022-12-20T11:49:55;10.80;;;8.80;;
7475;SDS011;3779;49.216;8.650;2022-12-20T11:52:48;11.20;;;9.93;;
7475;SDS011;3779;49.216;8.650;2022-12-20T11:55:39;11.53;;;9.83;;
7475;SDS011;3779;49.216;8.650;2022-12-20T11:59:14;11.40;;;9.83;;
7475;SDS011;3779;49.216;8.650;2022-12-20T12:05:02;12.03;;;10.60;;
7475;SDS011;3779;49.216;8.650;2022-12-20T12:08:03;10.10;;;9.00;;
7475;SDS011;3779;49.216;8.650;2022-12-20T12:11:05;12.77;;;10.90;;
7475;SDS011;3779;49.216;8.650;2022-12-20T12:13:58;13.63;;;11.00;;
7475;SDS011;3779;49.216;8.650;2022-12-20T12:16:47;12.43;;;11.10;;
7475;SDS011;3779;49.216;8.650;2022-12-20T12:19:39;13.47;;;11.13;;
7475;SDS011;3779;49.216;8.650;2022-12-20T12:22:31;15.00;;;12.30;;
7475;SDS011;3779;49.216;8.650;2022-12-20T12:25:19;13.53;;;10.80;;
7475;SDS011;3779;49.216;8.650;2022-12-20T12:28:05;12.80;;;10.07;;
7475;SDS011;3779;49.216;8.650;2022-12-20T12:30:53;15.63;;;9.80;;
7475;SDS011;3779;49.216;8.650;2022-12-20T12:33:45;13.43;;;10.10;;
7475;SDS011;3779;49.216;8.650;2022-12-20T12:43:44;10.80;;;9.37;;
7475;SDS011;3779;49.216;8.650;2022-12-20T12:46:35;10.37;;;8.87;;
7475;SDS011;3779;49.216;8.650;2022-12-20T12:49:21;10.63;;;9.53;;
7475;SDS011;3779;49.216;8.650;2022-12-20T12:52:25;12.23;;;9.63;;
7475;SDS011;3779;49.216;8.650;2022-12-20T12:55:37;11.73;;;9.40;;
7475;SDS011;3779;49.216;8.650;2022-12-20T13:01:10;8.17;;;7.33;;
7475;SDS011;3779;49.216;8.650;2022-12-20T13:09:40;13.27;;;10.10;;
7475;SDS011;3779;49.216;8.650;2022-12-20T13:13:09;12.23;;;9.90;;
7475;SDS011;3779;49.216;8.650;2022-12-20T13:15:45;10.13;;;8.87;;
7475;SDS011;3779;49.216;8.650;2022-12-20T13:18:32;12.80;;;10.40;;
7475;SDS011;3779;49.216;8.650;2022-12-20T13:21:36;13.57;;;10.97;;
7475;SDS011;3779;49.216;8.650;2022-12-20T13:30:26;10.67;;;9.23;;
7475;SDS011;3779;49.216;8.650;2022-12-20T13:33:17;12.30;;;10.33;;
7475;SDS011;3779;49.216;8.650;2022-12-20T13:38:55;12.30;;;11.10;;
7475;SDS011;3779;49.216;8.650;2022-12-20T13:41:47;11.73;;;10.63;;
7475;SDS011;3779;49.216;8.650;2022-12-20T13:44:41;11.80;;;10.57;;
7475;SDS011;3779;49.216;8.650;2022-12-20T13:47:39;13.07;;;10.30;;
7475;SDS011;3779;49.216;8.650;2022-12-20T13:50:32;11.93;;;10.03;;
7475;SDS011;3779;49.216;8.650;2022-12-20T13:53:24;12.23;;;10.90;;
7475;SDS011;3779;49.216;8.650;2022-12-20T14:02:16;11.70;;;10.47;;
7475;SDS011;3779;49.216;8.650;2022-12-20T14:05:06;10.03;;;8.17;;
7475;SDS011;3779;49.216;8.650;2022-12-20T14:07:58;9.10;;;8.20;;
7475;SDS011;3779;49.216;8.650;2022-12-20T14:10:45;5.83;;;4.77;;
7475;SDS011;3779;49.216;8.650;2022-12-20T14:13:30;8.37;;;6.57;;
7475;SDS011;3779;49.216;8.650;2022-12-20T14:16:19;8.17;;;7.00;;
7475;SDS011;3779;49.216;8.650;2022-12-20T14:19:12;7.27;;;6.57;;
7475;SDS011;3779;49.216;8.650;2022-12-20T14:21:58;7.60;;;6.80;;
7475;SDS011;3779;49.216;8.650;2022-12-20T14:24:44;7.27;;;6.57;;
7475;SDS011;3779;49.216;8.650;2022-12-20T14:27:32;9.00;;;6.60;;
7475;SDS011;3779;49.216;8.650;2022-12-20T14:30:31;10.80;;;9.70;;
7475;SDS011;3779;49.216;8.650;2022-12-20T14:33:28;11.77;;;9.70;;
7475;SDS011;3779;49.216;8.650;2022-12-20T14:36:19;13.40;;;9.83;;
7475;SDS011;3779;49.216;8.650;2022-12-20T14:39:22;8.63;;;6.93;;
7475;SDS011;3779;49.216;8.650;2022-12-20T14:42:18;9.53;;;8.43;;
7475;SDS011;3779;49.216;8.650;2022-12-20T14:47:58;8.73;;;7.40;;
7475;SDS011;3779;49.216;8.650;2022-12-20T14:50:51;7.80;;;7.03;;
7475;SDS011;3779;49.216;8.650;2022-12-20T14:53:38;9.30;;;7.73;;
7475;SDS011;3779;49.216;8.650;2022-12-20T14:56:25;9.83;;;8.83;;
7475;SDS011;3779;49.216;8.650;2022-12-20T14:59:14;13.43;;;10.83;;
7475;SDS011;3779;49.216;8.650;2022-12-20T15:02:22;12.13;;;10.90;;
7475;SDS011;3779;49.216;8.650;2022-12-20T15:11:12;9.43;;;8.27;;
7475;SDS011;3779;49.216;8.650;2022-12-20T15:17:11;8.53;;;6.77;;
7475;SDS011;3779;49.216;8.650;2022-12-20T15:20:01;8.17;;;6.73;;
7475;SDS011;3779;49.216;8.650;2022-12-20T15:22:47;7.67;;;6.23;;
7475;SDS011;3779;49.216;8.650;2022-12-20T15:25:33;7.53;;;6.77;;
7475;SDS011;3779;49.216;8.650;2022-12-20T15:28:22;8.60;;;6.33;;
7475;SDS011;3779;49.216;8.650;2022-12-20T15:31:10;5.93;;;5.23;;
7475;SDS011;3779;49.216;8.650;2022-12-20T15:33:58;7.93;;;7.03;;
7475;SDS011;3779;49.216;8.650;2022-12-20T15:36:46;8.23;;;6.67;;
7475;SDS011;3779;49.216;8.650;2022-12-20T15:39:32;7.37;;;6.13;;
7475;SDS011;3779;49.216;8.650;2022-12-20T15:42:18;8.13;;;7.33;;
7475;SDS011;3779;49.216;8.650;2022-12-20T15:45:05;9.57;;;6.73;;
7475;SDS011;3779;49.216;8.650;2022-12-20T15:47:56;10.57;;;8.30;;
7475;SDS011;3779;49.216;8.650;2022-12-20T15:50:43;9.00;;;8.10;;
7475;SDS011;3779;49.216;8.650;2022-12-20T15:53:34;9.50;;;7.53;;
7475;SDS011;3779;49.216;8.650;2022-12-20T15:56:20;7.40;;;6.60;;
7475;SDS011;3779;49.216;8.650;2022-12-20T15:59:08;9.20;;;8.30;;
7475;SDS011;3779;49.216;8.650;2022-12-20T16:01:56;9.97;;;8.70;;
7475;SDS011;3779;49.216;8.650;2022-12-20T16:04:42;11.00;;;8.73;;
7475;SDS011;3779;49.216;8.650;2022-12-20T16:07:28;14.03;;;10.93;;
7475;SDS011;3779;49.216;8.650;2022-12-20T16:10:14;14.90;;;11.40;;
7475;SDS011;3779;49.216;8.650;2022-12-20T16:13:00;18.57;;;13.77;;
7475;SDS011;3779;49.216;8.650;2022-12-20T16:15:47;15.17;;;12.60;;
7475;SDS011;3779;49.216;8.650;2022-12-20T16:18:33;11.13;;;9.43;;
7475;SDS011;3779;49.216;8.650;2022-12-20T16:21:20;11.87;;;10.03;;
7475;SDS011;3779;49.216;8.650;2022-12-20T16:24:11;16.50;;;11.50;;
7475;SDS011;3779;49.216;8.650;2022-12-20T16:26:59;14.67;;;11.60;;
7475;SDS011;3779;49.216;8.650;2022-12-20T16:29:45;13.87;;;11.30;;
7475;SDS011;3779;49.216;8.650;2022-12-20T16:32:31;15.50;;;12.27;;
7475;SDS011;3779;49.216;8.650;2022-12-20T16:35:21;14.87;;;11.47;;
7475;SDS011;3779;49.216;8.650;2022-12-20T16:38:09;16.10;;;12.30;;
7475;SDS011;3779;49.216;8.650;2022-12-20T16:40:55;12.47;;;10.63;;
7475;SDS011;3779;49.216;8.650;2022-12-20T16:43:57;13.53;;;10.47;;
7475;SDS011;3779;49.216;8.650;2022-12-20T16:46:44;11.27;;;9.67;;
7475;SDS011;3779;49.216;8.650;2022-12-20T16:49:30;10.77;;;9.43;;
7475;SDS011;3779;49.216;8.650;2022-12-20T16:52:16;11.37;;;10.13;;
7475;SDS011;3779;49.216;8.650;2022-12-20T16:55:03;11.17;;;10.00;;
7475;SDS011;3779;49.216;8.650;2022-12-20T16:57:50;13.17;;;10.50;;
7475;SDS011;3779;49.216;8.650;2022-12-20T17:00:37;12.33;;;9.97;;
7475;SDS011;3779;49.216;8.650;2022-12-20T17:03:23;13.67;;;10.73;;
7475;SDS011;3779;49.216;8.650;2022-12-20T17:06:11;14.10;;;12.27;;
7475;SDS011;3779;49.216;8.650;2022-12-20T17:08:58;11.80;;;10.37;;
7475;SDS011;3779;49.216;8.650;2022-12-20T17:11:45;14.57;;;11.63;;
7475;SDS011;3779;49.216;8.650;2022-12-20T17:14:32;14.50;;;12.10;;
7475;SDS011;3779;49.216;8.650;2022-12-20T17:17:18;15.37;;;12.23;;
7475;SDS011;3779;49.216;8.650;2022-12-20T17:20:04;16.93;;;11.60;;
7475;SDS011;3779;49.216;8.650;2022-12-20T17:22:53;13.30;;;11.60;;
7475;SDS011;3779;49.216;8.650;2022-12-20T17:25:39;14.43;;;11.83;;
7475;SDS011;3779;49.216;8.650;2022-12-20T17:28:26;18.80;;;12.27;;
7475;SDS011;3779;49.216;8.650;2022-12-20T17:37:04;14.23;;;11.37;;
7475;SDS011;3779;49.216;8.650;2022-12-20T17:39:51;14.13;;;11.77;;
7475;SDS011;3779;49.216;8.650;2022-12-20T17:42:37;11.93;;;10.63;;
7475;SDS011;3779;49.216;8.650;2022-12-20T17:45:28;10.83;;;9.77;;
7475;SDS011;3779;49.216;8.650;2022-12-20T17:48:16;20.00;;;10.63;;
7475;SDS011;3779;49.216;8.650;2022-12-20T17:51:08;13.23;;;10.83;;
7475;SDS011;3779;49.216;8.650;2022-12-20T17:54:05;13.90;;;10.40;;
7475;SDS011;3779;49.216;8.650;2022-12-20T17:56:57;7.93;;;6.97;;
7475;SDS011;3779;49.216;8.650;2022-12-20T17:59:44;12.47;;;10.30;;
7475;SDS011;3779;49.216;8.650;2022-12-20T18:02:31;12.47;;;10.30;;
7475;SDS011;3779;49.216;8.650;2022-12-20T18:05:17;9.77;;;6.63;;
7475;SDS011;3779;49.216;8.650;2022-12-20T18:08:03;9.17;;;8.17;;
7475;SDS011;3779;49.216;8.650;2022-12-20T18:10:49;6.97;;;6.27;;
7475;SDS011;3779;49.216;8.650;2022-12-20T18:13:35;10.00;;;8.43;;
7475;SDS011;3779;49.216;8.650;2022-12-20T18:16:26;12.83;;;9.20;;
7475;SDS011;3779;49.216;8.650;2022-12-20T18:19:16;7.13;;;6.10;;
7475;SDS011;3779;49.216;8.650;2022-12-20T18:22:03;8.20;;;6.73;;
7475;SDS011;3779;49.216;8.650;2022-12-20T18:24:49;11.20;;;8.63;;
7475;SDS011;3779;49.216;8.650;2022-12-20T18:27:36;9.43;;;8.53;;
7475;SDS011;3779;49.216;8.650;2022-12-20T18:30:25;11.20;;;9.23;;
7475;SDS011;3779;49.216;8.650;2022-12-20T18:33:11;10.97;;;9.20;;
7475;SDS011;3779;49.216;8.650;2022-12-20T18:38:50;11.30;;;9.07;;
7475;SDS011;3779;49.216;8.650;2022-12-20T18:41:37;9.67;;;7.97;;
7475;SDS011;3779;49.216;8.650;2022-12-20T18:44:23;10.73;;;9.20;;
7475;SDS011;3779;49.216;8.650;2022-12-20T18:47:09;11.27;;;7.93;;
7475;SDS011;3779;49.216;8.650;2022-12-20T18:49:55;11.77;;;8.17;;
7475;SDS011;3779;49.216;8.650;2022-12-20T18:52:41;7.90;;;6.57;;
7475;SDS011;3779;49.216;8.650;2022-12-20T18:55:27;10.50;;;9.00;;
7475;SDS011;3779;49.216;8.650;2022-12-20T18:58:13;10.57;;;9.47;;
7475;SDS011;3779;49.216;8.650;2022-12-20T19:01:01;9.73;;;8.40;;
7475;SDS011;3779;49.216;8.650;2022-12-20T19:03:49;11.27;;;9.47;;
7475;SDS011;3779;49.216;8.650;2022-12-20T19:06:36;11.33;;;8.47;;
7475;SDS011;3779;49.216;8.650;2022-12-20T19:09:22;21.23;;;15.03;;